createdAt,value
2023-05-15T00:02:13.145Z,5.90
2023-05-15T00:04:44.657Z,4.20
2023-05-15T00:07:12.521Z,4.50
2023-05-15T00:09:43.225Z,6.70
2023-05-15T00:12:11.047Z,6.50
2023-05-15T00:14:38.766Z,7.10
2023-05-15T00:17:06.593Z,5.80
2023-05-15T00:19:34.556Z,6.00
2023-05-15T00:22:02.420Z,5.80
2023-05-15T00:24:36.311Z,5.60
2023-05-15T00:27:06.615Z,5.70
2023-05-15T00:29:34.590Z,5.70
2023-05-15T00:32:02.328Z,5.40
2023-05-15T00:34:30.131Z,5.60
2023-05-15T00:37:00.930Z,5.00
2023-05-15T00:39:28.797Z,4.80
2023-05-15T00:41:57.192Z,5.60
2023-05-15T00:44:26.294Z,5.50
2023-05-15T00:46:54.737Z,5.10
2023-05-15T00:49:32.694Z,5.00
2023-05-15T00:52:03.693Z,5.10
2023-05-15T00:54:31.593Z,5.50
2023-05-15T00:56:59.742Z,5.50
2023-05-15T00:59:33.680Z,5.40
2023-05-15T01:02:01.597Z,5.30
2023-05-15T01:04:29.813Z,5.00
2023-05-15T01:06:57.631Z,6.90
2023-05-15T01:09:26.193Z,6.20
2023-05-15T01:11:55.318Z,6.70
2023-05-15T01:14:23.033Z,7.10
2023-05-15T01:16:51.488Z,9.60
2023-05-15T01:19:19.344Z,7.90
2023-05-15T01:22:03.472Z,6.80
2023-05-15T01:24:56.609Z,8.20
2023-05-15T01:27:32.071Z,7.30
2023-05-15T01:30:00.016Z,6.30
2023-05-15T01:32:31.188Z,5.90
2023-05-15T01:34:59.124Z,5.70
2023-05-15T01:37:29.142Z,5.30
2023-05-15T01:40:00.503Z,4.70
2023-05-15T01:42:31.585Z,5.20
2023-05-15T01:45:01.040Z,5.30
2023-05-15T01:47:35.384Z,4.90
2023-05-15T01:50:04.248Z,4.90
2023-05-15T01:52:36.849Z,5.20
2023-05-15T01:55:05.929Z,4.70
2023-05-15T01:57:34.829Z,4.30
2023-05-15T02:00:03.786Z,4.70
2023-05-15T02:02:32.337Z,4.90
2023-05-15T02:05:01.155Z,6.00
2023-05-15T02:07:29.567Z,4.60
2023-05-15T02:09:57.868Z,5.40
2023-05-15T02:12:26.589Z,4.70
2023-05-15T02:14:55.188Z,5.10
2023-05-15T02:17:23.955Z,4.90
2023-05-15T02:19:51.774Z,5.00
2023-05-15T02:22:19.682Z,4.40
2023-05-15T02:24:50.146Z,5.10
2023-05-15T02:27:22.734Z,4.60
2023-05-15T02:30:02.503Z,5.60
2023-05-15T02:32:30.455Z,4.50
2023-05-15T02:35:07.389Z,5.20
2023-05-15T02:37:39.531Z,4.70
2023-05-15T02:40:11.184Z,4.40
2023-05-15T02:42:40.670Z,4.90
2023-05-15T02:45:09.549Z,5.00
2023-05-15T02:47:38.536Z,5.10
2023-05-15T02:50:09.760Z,4.90
2023-05-15T02:52:37.874Z,4.80
2023-05-15T02:55:06.371Z,4.80
2023-05-15T02:57:34.167Z,4.80
2023-05-15T03:00:02.010Z,5.00
2023-05-15T03:02:30.293Z,5.20
2023-05-15T03:04:58.538Z,4.30
2023-05-15T03:07:35.537Z,5.00
2023-05-15T03:10:03.417Z,4.60
2023-05-15T03:12:31.313Z,4.70
2023-05-15T03:14:59.127Z,4.20
2023-05-15T03:17:27.067Z,4.40
2023-05-15T03:19:56.350Z,5.00
2023-05-15T03:22:24.328Z,4.30
2023-05-15T03:24:55.695Z,4.70
2023-05-15T03:27:23.440Z,4.80
2023-05-15T03:29:54.341Z,5.10
2023-05-15T03:32:22.247Z,4.40
2023-05-15T03:34:50.102Z,5.90
2023-05-15T03:37:18.023Z,5.10
2023-05-15T03:39:45.889Z,5.00
2023-05-15T03:42:13.740Z,5.90
2023-05-15T03:44:46.883Z,5.90
2023-05-15T03:47:14.749Z,6.20
2023-05-15T03:49:45.730Z,6.20
2023-05-15T03:52:13.926Z,6.10
2023-05-15T03:54:42.671Z,6.30
2023-05-15T03:57:10.557Z,6.70
2023-05-15T03:59:38.302Z,7.00
2023-05-15T04:02:06.169Z,8.90
2023-05-15T04:04:34.413Z,8.30
2023-05-15T04:07:02.380Z,8.40
2023-05-15T04:09:30.347Z,7.90
2023-05-15T04:11:58.209Z,6.90
2023-05-15T04:14:25.978Z,7.20
2023-05-15T04:16:53.769Z,7.10
2023-05-15T04:19:21.634Z,8.30
2023-05-15T04:21:49.456Z,8.40
2023-05-15T04:24:17.294Z,8.50
2023-05-15T04:26:45.244Z,7.70
2023-05-15T04:29:13.312Z,7.70
2023-05-15T04:31:41.359Z,8.50
2023-05-15T04:34:11.635Z,7.20
2023-05-15T04:36:40.754Z,6.40
2023-05-15T04:39:10.193Z,6.90
2023-05-15T04:41:38.033Z,7.40
2023-05-15T04:44:06.536Z,7.70
2023-05-15T04:46:34.988Z,7.50
2023-05-15T04:49:02.969Z,7.10
2023-05-15T04:51:31.057Z,7.80
2023-05-15T04:53:58.806Z,8.10
2023-05-15T04:56:26.675Z,8.80
2023-05-15T04:58:54.442Z,9.00
2023-05-15T05:01:22.278Z,9.60
2023-05-15T05:03:50.347Z,7.90
2023-05-15T05:06:21.544Z,7.40
2023-05-15T05:08:49.357Z,7.90
2023-05-15T05:11:17.168Z,8.30
2023-05-15T05:13:45.002Z,8.30
2023-05-15T05:16:12.747Z,8.10
2023-05-15T05:18:40.659Z,7.70
2023-05-15T05:21:08.606Z,7.50
2023-05-15T05:23:36.495Z,8.40
2023-05-15T05:26:06.061Z,8.70
2023-05-15T05:28:33.998Z,10.90
2023-05-15T05:31:03.111Z,10.70
2023-05-15T05:33:34.653Z,10.10
2023-05-15T05:36:11.177Z,8.40
2023-05-15T05:38:39.342Z,8.90
2023-05-15T05:41:07.045Z,18.60
2023-05-15T05:43:34.931Z,34.50
2023-05-15T05:46:03.082Z,22.70
2023-05-15T05:48:31.099Z,12.90
2023-05-15T05:50:59.078Z,8.50
2023-05-15T05:53:26.795Z,8.20
2023-05-15T05:55:54.633Z,7.70
2023-05-15T05:58:26.101Z,10.30
2023-05-15T06:00:54.222Z,7.60
2023-05-15T06:03:22.459Z,8.00
2023-05-15T06:05:50.301Z,6.80
2023-05-15T06:08:18.034Z,7.60
2023-05-15T06:10:46.081Z,7.30
2023-05-15T06:13:15.197Z,7.20
2023-05-15T06:15:43.554Z,7.00
2023-05-15T06:18:11.581Z,7.30
2023-05-15T06:20:39.407Z,7.40
2023-05-15T06:23:07.155Z,7.20
2023-05-15T06:25:38.104Z,7.40
2023-05-15T06:28:06.183Z,8.10
2023-05-15T06:30:34.004Z,7.90
2023-05-15T06:33:01.827Z,8.80
2023-05-15T06:35:32.264Z,8.30
2023-05-15T06:38:00.199Z,8.90
2023-05-15T06:40:28.280Z,8.40
2023-05-15T06:42:59.122Z,8.80
2023-05-15T06:45:27.649Z,8.30
2023-05-15T06:47:55.682Z,8.40
2023-05-15T06:50:23.557Z,7.80
2023-05-15T06:52:51.490Z,8.00
2023-05-15T06:55:19.208Z,7.10
2023-05-15T06:57:49.576Z,6.90
2023-05-15T07:00:17.538Z,6.70
2023-05-15T07:02:45.312Z,6.60
2023-05-15T07:05:14.359Z,6.00
2023-05-15T07:07:42.973Z,6.90
2023-05-15T07:10:11.223Z,6.70
2023-05-15T07:12:39.075Z,6.00
2023-05-15T07:15:07.272Z,5.80
2023-05-15T07:17:35.389Z,5.40
2023-05-15T07:20:06.081Z,5.80
2023-05-15T07:22:38.741Z,5.30
2023-05-15T07:25:14.530Z,5.10
2023-05-15T07:27:43.576Z,5.90
2023-05-15T07:30:14.917Z,5.70
2023-05-15T07:32:42.757Z,6.40
2023-05-15T07:35:11.671Z,6.10
2023-05-15T07:37:47.226Z,6.30
2023-05-15T07:40:15.716Z,5.40
2023-05-15T07:42:52.190Z,6.40
2023-05-15T07:45:23.135Z,6.30
2023-05-15T07:47:51.600Z,5.60
2023-05-15T07:50:19.441Z,5.50
2023-05-15T07:52:49.951Z,6.00
2023-05-15T07:55:17.884Z,5.90
2023-05-15T07:57:45.861Z,5.50
2023-05-15T08:00:14.207Z,6.20
2023-05-15T08:02:42.810Z,5.30
2023-05-15T08:05:10.824Z,5.70
2023-05-15T08:07:38.938Z,5.00
2023-05-15T08:10:07.266Z,5.00
2023-05-15T08:12:35.240Z,4.80
2023-05-15T08:15:03.171Z,4.90
2023-05-15T08:17:31.218Z,5.50
2023-05-15T08:19:59.026Z,4.90
2023-05-15T08:22:26.773Z,5.30
2023-05-15T08:24:54.548Z,4.70
2023-05-15T08:27:22.574Z,4.60
2023-05-15T08:29:52.633Z,4.60
2023-05-15T08:32:20.522Z,5.40
2023-05-15T08:34:48.336Z,5.40
2023-05-15T08:37:16.247Z,4.40
2023-05-15T08:39:44.235Z,4.40
2023-05-15T08:42:23.944Z,5.10
2023-05-15T08:44:51.786Z,4.50
2023-05-15T08:47:20.198Z,5.60
2023-05-15T08:49:48.061Z,5.00
2023-05-15T08:52:16.506Z,4.40
2023-05-15T08:54:45.465Z,4.50
2023-05-15T08:57:15.607Z,5.00
2023-05-15T08:59:43.589Z,4.10
2023-05-15T09:02:11.492Z,4.90
2023-05-15T09:04:39.666Z,5.70
2023-05-15T09:07:07.872Z,5.70
2023-05-15T09:09:35.994Z,5.70
2023-05-15T09:12:04.281Z,5.20
2023-05-15T09:14:32.093Z,5.60
2023-05-15T09:16:59.862Z,5.30
2023-05-15T09:19:30.626Z,5.70
2023-05-15T09:22:16.502Z,6.00
2023-05-15T09:24:45.048Z,6.20
2023-05-15T09:27:12.801Z,6.50
2023-05-15T09:29:40.650Z,6.60
2023-05-15T09:32:11.827Z,6.20
2023-05-15T09:34:40.737Z,7.10
2023-05-15T09:37:27.239Z,6.60
2023-05-15T09:39:55.019Z,6.10
2023-05-15T09:42:24.594Z,6.40
2023-05-15T09:44:52.597Z,6.70
2023-05-15T09:47:20.543Z,6.60
2023-05-15T09:49:54.905Z,7.30
2023-05-15T09:52:23.577Z,6.90
2023-05-15T09:54:52.147Z,6.90
2023-05-15T09:57:22.340Z,6.80
2023-05-15T09:59:50.452Z,7.10
2023-05-15T10:02:25.171Z,7.10
2023-05-15T10:04:57.161Z,7.80
2023-05-15T10:07:31.829Z,6.80
2023-05-15T10:10:00.322Z,7.70
2023-05-15T10:12:28.975Z,7.70
2023-05-15T10:15:00.213Z,7.30
2023-05-15T10:17:29.434Z,7.60
2023-05-15T10:19:59.294Z,8.30
2023-05-15T10:22:29.623Z,8.30
2023-05-15T10:25:08.499Z,8.00
2023-05-15T10:27:37.465Z,7.90
2023-05-15T10:30:05.491Z,7.10
2023-05-15T10:32:34.090Z,7.40
2023-05-15T10:35:03.044Z,8.30
2023-05-15T10:37:30.921Z,8.50
2023-05-15T10:39:59.896Z,9.00
2023-05-15T10:42:29.202Z,9.00
2023-05-15T10:45:00.249Z,10.20
2023-05-15T10:47:34.529Z,9.50
2023-05-15T10:50:04.239Z,9.50
2023-05-15T10:52:33.564Z,9.40
2023-05-15T10:55:01.800Z,9.60
2023-05-15T10:57:32.370Z,9.30
2023-05-15T11:00:01.449Z,10.20
2023-05-15T11:02:38.546Z,11.00
2023-05-15T11:05:07.059Z,11.20
2023-05-15T11:07:35.059Z,11.40
2023-05-15T11:10:22.859Z,11.90
2023-05-15T11:13:23.488Z,11.60
2023-05-15T11:15:51.675Z,10.90
2023-05-15T11:18:20.338Z,10.30
2023-05-15T11:20:54.298Z,10.70
2023-05-15T11:23:25.260Z,10.00
2023-05-15T11:25:54.626Z,10.70
2023-05-15T11:28:24.741Z,10.50
2023-05-15T11:30:53.700Z,9.90
2023-05-15T11:33:21.824Z,10.30
2023-05-15T11:35:57.338Z,10.10
2023-05-15T11:38:25.790Z,10.00
2023-05-15T11:41:03.881Z,10.20
2023-05-15T11:43:36.169Z,10.10
2023-05-15T11:46:04.156Z,10.10
2023-05-15T11:48:37.758Z,10.40
2023-05-15T11:51:06.287Z,9.20
2023-05-15T11:53:41.051Z,9.70
2023-05-15T11:56:13.048Z,9.70
2023-05-15T11:58:49.254Z,9.90
2023-05-15T12:01:17.444Z,10.40
2023-05-15T12:03:47.747Z,9.60
2023-05-15T12:06:16.221Z,10.20
2023-05-15T12:08:45.139Z,9.70
2023-05-15T12:11:20.601Z,9.10
2023-05-15T12:13:51.394Z,10.40
2023-05-15T12:16:26.854Z,11.40
2023-05-15T12:18:57.723Z,9.40
2023-05-15T12:21:29.119Z,9.10
2023-05-15T12:24:07.148Z,10.00
2023-05-15T12:26:36.266Z,9.70
2023-05-15T12:29:05.225Z,9.90
2023-05-15T12:31:36.700Z,9.80
2023-05-15T12:34:04.916Z,9.10
2023-05-15T12:36:32.876Z,9.00
2023-05-15T12:39:05.232Z,9.90
2023-05-15T12:41:33.678Z,8.20
2023-05-15T12:44:04.705Z,8.10
2023-05-15T12:46:35.398Z,8.40
2023-05-15T12:49:04.339Z,8.40
2023-05-15T12:51:32.390Z,7.80
2023-05-15T12:54:06.092Z,9.10
2023-05-15T12:56:34.038Z,9.60
2023-05-15T12:59:02.033Z,9.10
2023-05-15T13:01:35.716Z,10.10
2023-05-15T13:04:04.520Z,10.80
2023-05-15T13:06:45.564Z,8.90
2023-05-15T13:09:21.258Z,6.80
2023-05-15T13:11:54.814Z,6.30
2023-05-15T13:14:27.134Z,7.20
2023-05-15T13:16:59.192Z,7.20
2023-05-15T13:19:27.227Z,9.50
2023-05-15T13:21:55.165Z,8.90
2023-05-15T13:24:26.439Z,8.10
2023-05-15T13:26:54.576Z,7.80
2023-05-15T13:29:23.158Z,8.50
2023-05-15T13:31:51.183Z,7.50
2023-05-15T13:34:21.584Z,7.50
2023-05-15T13:36:49.385Z,6.90
2023-05-15T13:39:17.227Z,6.70
2023-05-15T13:41:45.276Z,6.40
2023-05-15T13:44:13.293Z,6.40
2023-05-15T13:46:41.172Z,6.00
2023-05-15T13:49:11.322Z,7.10
2023-05-15T13:51:39.468Z,7.00
2023-05-15T13:54:07.262Z,6.60
2023-05-15T13:56:35.219Z,6.80
2023-05-15T13:59:03.509Z,7.20
2023-05-15T14:01:31.455Z,7.00
2023-05-15T14:03:59.474Z,6.70
2023-05-15T14:06:28.059Z,6.40
2023-05-15T14:08:56.141Z,6.00
2023-05-15T14:11:24.303Z,6.30
2023-05-15T14:13:52.509Z,6.20
2023-05-15T14:16:20.334Z,6.00
2023-05-15T14:18:48.320Z,5.30
2023-05-15T14:21:16.055Z,5.40
2023-05-15T14:23:43.831Z,5.50
2023-05-15T14:26:15.082Z,5.70
2023-05-15T14:28:43.040Z,4.80
2023-05-15T14:31:13.832Z,5.00
2023-05-15T14:33:41.656Z,5.90
2023-05-15T14:36:09.752Z,5.80
2023-05-15T14:38:37.738Z,6.10
2023-05-15T14:41:06.168Z,6.10
2023-05-15T14:43:33.962Z,6.20
2023-05-15T14:46:01.780Z,7.10
2023-05-15T14:48:30.155Z,7.10
2023-05-15T14:50:58.552Z,7.20
2023-05-15T14:53:26.691Z,6.70
2023-05-15T14:55:54.997Z,7.30
2023-05-15T14:58:23.036Z,7.00
2023-05-15T15:00:50.969Z,8.20
2023-05-15T15:03:22.093Z,6.90
2023-05-15T15:05:51.178Z,7.90
2023-05-15T15:08:19.598Z,7.30
2023-05-15T15:10:47.436Z,7.70
2023-05-15T15:13:16.558Z,7.90
2023-05-15T15:15:44.502Z,8.00
2023-05-15T15:18:21.590Z,7.60
2023-05-15T15:20:49.890Z,7.60
2023-05-15T15:23:18.082Z,8.10
2023-05-15T15:25:46.079Z,8.30
2023-05-15T15:28:14.014Z,8.20
2023-05-15T15:30:41.856Z,7.90
2023-05-15T15:33:09.744Z,8.00
2023-05-15T15:35:37.541Z,7.50
2023-05-15T15:38:05.698Z,6.80
2023-05-15T15:40:34.814Z,6.30
2023-05-15T15:43:02.650Z,6.00
2023-05-15T15:45:30.686Z,6.50
2023-05-15T15:47:58.644Z,6.60
2023-05-15T15:50:27.011Z,6.30
2023-05-15T15:52:55.250Z,6.50
2023-05-15T15:55:23.081Z,6.20
2023-05-15T15:57:56.380Z,6.70
2023-05-15T16:00:24.692Z,6.90
2023-05-15T16:02:52.920Z,6.90
2023-05-15T16:05:20.872Z,7.30
2023-05-15T16:07:48.945Z,7.70
2023-05-15T16:10:17.380Z,8.10
2023-05-15T16:12:45.734Z,8.30
2023-05-15T16:15:23.373Z,7.70
2023-05-15T16:17:53.554Z,8.80
2023-05-15T16:20:22.679Z,8.60
2023-05-15T16:22:50.569Z,8.00
2023-05-15T16:25:18.487Z,7.80
2023-05-15T16:27:46.325Z,8.00
2023-05-15T16:30:14.206Z,7.70
2023-05-15T16:32:42.171Z,7.70
2023-05-15T16:35:10.209Z,7.80
2023-05-15T16:37:38.029Z,6.20
2023-05-15T16:40:06.563Z,6.70
2023-05-15T16:42:38.003Z,5.80
2023-05-15T16:45:06.455Z,5.90
2023-05-15T16:47:35.138Z,5.50
2023-05-15T16:50:03.655Z,5.20
2023-05-15T16:52:31.581Z,5.50
2023-05-15T16:54:59.348Z,5.40
2023-05-15T16:57:27.134Z,5.40
2023-05-15T16:59:54.965Z,6.00
2023-05-15T17:02:22.930Z,5.60
2023-05-15T17:04:51.237Z,5.60
2023-05-15T17:07:18.946Z,5.70
2023-05-15T17:09:46.979Z,5.40
2023-05-15T17:12:14.870Z,5.10
2023-05-15T17:14:43.387Z,5.50
2023-05-15T17:17:11.182Z,6.10
2023-05-15T17:19:39.043Z,6.70
2023-05-15T17:22:07.084Z,6.80
2023-05-15T17:24:49.179Z,6.50
2023-05-15T17:27:19.596Z,6.20
2023-05-15T17:29:47.786Z,6.10
2023-05-15T17:32:17.123Z,9.00
2023-05-15T17:34:45.690Z,10.30
2023-05-15T17:37:13.782Z,8.10
2023-05-15T17:39:41.907Z,5.30
2023-05-15T17:42:09.736Z,5.40
2023-05-15T17:44:37.591Z,5.10
2023-05-15T17:47:05.491Z,5.40
2023-05-15T17:49:34.320Z,5.40
2023-05-15T17:52:02.357Z,6.10
2023-05-15T17:54:30.211Z,5.30
2023-05-15T17:56:58.015Z,5.60
2023-05-15T17:59:25.911Z,5.60
2023-05-15T18:01:53.913Z,5.20
2023-05-15T18:04:21.911Z,5.20
2023-05-15T18:06:49.861Z,5.30
2023-05-15T18:09:17.771Z,5.60
2023-05-15T18:11:45.695Z,6.30
2023-05-15T18:14:13.502Z,5.20
2023-05-15T18:16:41.436Z,5.30
2023-05-15T18:19:09.517Z,4.80
2023-05-15T18:21:38.151Z,4.50
2023-05-15T18:24:12.745Z,4.70
2023-05-15T18:26:41.096Z,4.50
2023-05-15T18:29:08.955Z,4.60
2023-05-15T18:31:37.065Z,4.50
2023-05-15T18:34:05.461Z,3.80
2023-05-15T18:36:33.395Z,5.00
2023-05-15T18:39:02.532Z,4.10
2023-05-15T18:41:30.747Z,4.50
2023-05-15T18:43:59.137Z,4.10
2023-05-15T18:46:28.376Z,4.30
2023-05-15T18:48:56.694Z,4.30
2023-05-15T18:51:24.560Z,4.90
2023-05-15T18:53:52.408Z,4.90
2023-05-15T18:56:21.674Z,4.20
2023-05-15T18:58:50.438Z,4.80
2023-05-15T19:01:18.412Z,4.80
2023-05-15T19:03:46.476Z,5.20
2023-05-15T19:06:19.751Z,4.70
2023-05-15T19:08:48.255Z,5.10
2023-05-15T19:11:16.670Z,4.80
2023-05-15T19:13:44.561Z,4.70
2023-05-15T19:16:12.882Z,5.30
2023-05-15T19:18:40.914Z,5.00
2023-05-15T19:21:08.941Z,5.00
2023-05-15T19:23:36.863Z,4.80
2023-05-15T19:26:04.687Z,5.20
2023-05-15T19:28:32.624Z,4.60
2023-05-15T19:31:00.498Z,4.70
2023-05-15T19:33:28.616Z,4.40
2023-05-15T19:35:56.781Z,4.50
2023-05-15T19:38:24.654Z,5.20
2023-05-15T19:40:53.122Z,4.60
2023-05-15T19:43:21.021Z,5.10
2023-05-15T19:45:48.965Z,4.80
2023-05-15T19:48:16.789Z,5.10
2023-05-15T19:50:45.209Z,4.60
2023-05-15T19:53:13.119Z,4.60
2023-05-15T19:55:40.980Z,4.50
2023-05-15T19:58:09.313Z,4.50
2023-05-15T20:00:37.267Z,4.90
2023-05-15T20:03:05.141Z,4.80
2023-05-15T20:05:33.269Z,4.50
2023-05-15T20:08:01.384Z,4.60
2023-05-15T20:10:29.215Z,4.90
2023-05-15T20:12:57.048Z,4.50
2023-05-15T20:15:24.946Z,4.30
2023-05-15T20:17:53.580Z,4.60
2023-05-15T20:20:21.579Z,4.50
2023-05-15T20:22:49.439Z,4.10
2023-05-15T20:25:17.284Z,4.70
2023-05-15T20:27:45.276Z,4.20
2023-05-15T20:30:13.190Z,4.90
2023-05-15T20:32:41.077Z,4.50
2023-05-15T20:35:09.321Z,4.90
2023-05-15T20:37:41.014Z,4.70
2023-05-15T20:40:11.935Z,4.50
2023-05-15T20:42:39.904Z,4.20
2023-05-15T20:45:08.991Z,4.40
2023-05-15T20:47:36.902Z,4.70
2023-05-15T20:50:04.953Z,4.70
2023-05-15T20:52:32.827Z,4.90
2023-05-15T20:55:00.742Z,4.90
2023-05-15T20:57:28.532Z,5.10
2023-05-15T20:59:56.247Z,4.90
2023-05-15T21:02:24.002Z,4.70
2023-05-15T21:04:52.408Z,4.90
2023-05-15T21:07:20.261Z,5.20
2023-05-15T21:09:48.030Z,5.60
2023-05-15T21:12:15.818Z,5.30
2023-05-15T21:14:43.581Z,5.30
2023-05-15T21:17:11.640Z,5.70
2023-05-15T21:19:39.498Z,5.30
2023-05-15T21:22:07.468Z,5.90
2023-05-15T21:24:37.724Z,6.50
2023-05-15T21:27:05.956Z,6.90
2023-05-15T21:29:33.989Z,6.30
2023-05-15T21:32:01.761Z,7.10
2023-05-15T21:34:29.818Z,7.60
2023-05-15T21:36:57.595Z,7.20
2023-05-15T21:39:27.787Z,7.40
2023-05-15T21:41:55.636Z,6.60
2023-05-15T21:44:23.395Z,7.00
2023-05-15T21:46:51.204Z,6.80
2023-05-15T21:49:19.398Z,7.20
2023-05-15T21:51:47.173Z,7.60
2023-05-15T21:54:15.105Z,7.10
2023-05-15T21:56:43.663Z,6.50
2023-05-15T21:59:14.168Z,7.00
2023-05-15T22:01:41.976Z,6.50
2023-05-15T22:04:09.922Z,6.50
2023-05-15T22:06:38.053Z,6.50
2023-05-15T22:09:06.174Z,6.50
2023-05-15T22:11:34.534Z,6.40
2023-05-15T22:14:03.100Z,7.50
2023-05-15T22:16:33.989Z,7.00
2023-05-15T22:19:02.198Z,7.00
2023-05-15T22:21:31.351Z,6.80
2023-05-15T22:23:59.158Z,7.10
2023-05-15T22:26:27.013Z,7.60
2023-05-15T22:28:58.307Z,6.60
2023-05-15T22:31:26.530Z,6.20
2023-05-15T22:33:54.311Z,7.00
2023-05-15T22:36:22.223Z,5.80
2023-05-15T22:38:50.074Z,6.40
2023-05-15T22:41:18.193Z,7.50
2023-05-15T22:43:45.991Z,6.90
2023-05-15T22:46:16.173Z,7.00
2023-05-15T22:48:46.506Z,6.50
2023-05-15T22:51:16.227Z,6.40
2023-05-15T22:53:44.154Z,6.50
2023-05-15T22:56:12.137Z,6.60
2023-05-15T22:58:40.036Z,6.50
2023-05-15T23:01:08.066Z,7.40
2023-05-15T23:03:36.133Z,6.60
2023-05-15T23:06:04.189Z,7.20
2023-05-15T23:08:32.072Z,7.20
2023-05-15T23:10:59.824Z,7.80
2023-05-15T23:13:27.624Z,7.50
2023-05-15T23:15:55.439Z,7.70
2023-05-15T23:18:23.435Z,7.40
2023-05-15T23:20:51.611Z,7.40
2023-05-15T23:23:19.627Z,7.60
2023-05-15T23:25:47.409Z,7.80
2023-05-15T23:28:15.103Z,7.60
2023-05-15T23:30:42.942Z,6.80
2023-05-15T23:33:11.013Z,7.30
2023-05-15T23:35:38.710Z,7.60
2023-05-15T23:38:06.812Z,7.90
2023-05-15T23:40:34.524Z,6.30
2023-05-15T23:43:02.571Z,7.90
2023-05-15T23:45:30.380Z,7.00
2023-05-15T23:47:58.264Z,7.00
2023-05-15T23:50:26.507Z,6.70
2023-05-15T23:52:54.537Z,6.90
2023-05-15T23:55:22.410Z,7.10
2023-05-15T23:57:50.906Z,6.40
